createdAt,value
2019-06-01T00:00:49.449Z,4.57
2019-06-01T00:03:21.591Z,4.37
2019-06-01T00:05:52.780Z,4.80
2019-06-01T00:08:28.292Z,4.40
2019-06-01T00:11:02.517Z,4.40
2019-06-01T00:13:36.585Z,5.17
2019-06-01T00:16:10.186Z,4.53
2019-06-01T00:18:43.989Z,4.60
2019-06-01T00:21:17.612Z,4.13
2019-06-01T00:23:53.266Z,4.73
2019-06-01T00:26:25.545Z,4.97
2019-06-01T00:28:57.746Z,5.30
2019-06-01T00:31:30.753Z,4.80
2019-06-01T00:34:03.729Z,5.10
2019-06-01T00:36:39.188Z,4.80
2019-06-01T00:39:11.842Z,4.57
2019-06-01T00:41:45.760Z,4.97
2019-06-01T00:44:18.801Z,4.77
2019-06-01T00:46:52.771Z,4.50
2019-06-01T00:49:24.707Z,4.37
2019-06-01T00:51:57.820Z,4.43
2019-06-01T00:54:30.617Z,4.27
2019-06-01T00:57:02.769Z,5.20
2019-06-01T00:59:36.713Z,4.97
2019-06-01T01:02:11.001Z,5.57
2019-06-01T01:04:44.296Z,6.33
2019-06-01T01:07:15.974Z,5.00
2019-06-01T01:09:49.138Z,4.83
2019-06-01T01:12:20.338Z,4.37
2019-06-01T01:14:53.379Z,4.80
2019-06-01T01:17:28.665Z,5.40
2019-06-01T01:20:00.895Z,5.63
2019-06-01T01:22:36.642Z,4.93
2019-06-01T01:25:10.393Z,4.80
2019-06-01T01:27:44.949Z,6.17
2019-06-01T01:30:17.883Z,4.30
2019-06-01T01:32:53.248Z,4.73
2019-06-01T01:35:24.965Z,4.40
2019-06-01T01:37:59.850Z,6.07
2019-06-01T01:40:32.259Z,5.10
2019-06-01T01:43:04.824Z,5.60
2019-06-01T01:45:36.988Z,4.80
2019-06-01T01:48:09.785Z,5.73
2019-06-01T01:50:44.620Z,4.50
2019-06-01T01:53:16.961Z,4.27
2019-06-01T01:55:52.926Z,5.50
2019-06-01T01:58:26.084Z,6.33
2019-06-01T02:01:16.954Z,5.70
2019-06-01T02:03:36.078Z,6.07
2019-06-01T02:06:09.167Z,5.70
2019-06-01T02:08:41.146Z,4.43
2019-06-01T02:11:16.500Z,4.30
2019-06-01T02:13:51.587Z,4.00
2019-06-01T02:16:25.541Z,4.10
2019-06-01T02:18:58.780Z,4.27
2019-06-01T02:21:34.808Z,4.63
2019-06-01T02:24:08.269Z,5.37
2019-06-01T02:26:41.599Z,4.43
2019-06-01T02:29:15.520Z,4.50
2019-06-01T02:31:48.381Z,4.57
2019-06-01T02:34:21.356Z,3.90
2019-06-01T02:36:56.505Z,4.10
2019-06-01T02:39:28.186Z,4.60
2019-06-01T02:42:01.300Z,5.50
2019-06-01T02:44:35.446Z,4.20
2019-06-01T02:47:09.243Z,3.87
2019-06-01T02:49:41.379Z,4.90
2019-06-01T02:52:14.224Z,5.30
2019-06-01T02:54:46.344Z,4.20
2019-06-01T02:57:18.313Z,4.73
2019-06-01T02:59:50.509Z,5.40
2019-06-01T03:02:23.386Z,4.90
2019-06-01T03:04:57.064Z,5.33
2019-06-01T03:07:31.717Z,5.50
2019-06-01T03:10:05.403Z,4.37
2019-06-01T03:12:44.511Z,4.37
2019-06-01T03:15:17.417Z,5.10
2019-06-01T03:17:51.959Z,4.77
2019-06-01T03:20:28.959Z,4.40
2019-06-01T03:23:04.045Z,4.20
2019-06-01T03:25:35.867Z,4.23
2019-06-01T03:28:09.074Z,4.70
2019-06-01T03:30:45.602Z,4.70
2019-06-01T03:33:18.342Z,5.03
2019-06-01T03:35:54.606Z,5.43
2019-06-01T03:38:28.689Z,6.07
2019-06-01T03:41:02.128Z,5.47
2019-06-01T03:43:36.205Z,4.43
2019-06-01T03:46:08.751Z,4.43
2019-06-01T03:48:43.075Z,4.53
2019-06-01T03:51:15.477Z,4.77
2019-06-01T03:53:47.621Z,4.47
2019-06-01T03:56:21.533Z,5.20
2019-06-01T03:58:58.979Z,4.57
2019-06-01T04:01:32.867Z,4.50
2019-06-01T04:04:07.141Z,5.80
2019-06-01T04:07:20.554Z,5.17
2019-06-01T04:09:52.823Z,5.17
2019-06-01T04:12:25.799Z,5.07
2019-06-01T04:14:57.781Z,6.00
2019-06-01T04:17:32.854Z,5.37
2019-06-01T04:20:05.980Z,5.70
2019-06-01T04:22:39.494Z,5.37
2019-06-01T04:25:12.306Z,5.87
2019-06-01T04:27:43.774Z,5.40
2019-06-01T04:30:21.787Z,6.10
2019-06-01T04:32:56.500Z,5.80
2019-06-01T04:35:30.775Z,6.33
2019-06-01T04:38:05.176Z,5.30
2019-06-01T04:40:40.387Z,5.07
2019-06-01T04:43:14.190Z,4.57
2019-06-01T04:45:45.948Z,5.13
2019-06-01T04:48:19.911Z,4.60
2019-06-01T04:50:53.900Z,4.03
2019-06-01T04:53:27.636Z,5.20
2019-06-01T04:55:58.896Z,4.40
2019-06-01T04:58:32.472Z,5.30
2019-06-01T05:01:05.343Z,4.60
2019-06-01T05:03:37.895Z,5.20
2019-06-01T05:06:11.226Z,4.87
2019-06-01T05:08:43.896Z,4.80
2019-06-01T05:11:16.195Z,4.60
2019-06-01T05:13:48.972Z,4.60
2019-06-01T05:16:25.093Z,5.57
2019-06-01T05:18:57.540Z,5.53
2019-06-01T05:21:32.702Z,4.73
2019-06-01T05:24:04.292Z,5.47
2019-06-01T05:26:36.987Z,5.30
2019-06-01T05:29:11.660Z,5.87
2019-06-01T05:31:43.268Z,5.60
2019-06-01T05:34:18.387Z,5.20
2019-06-01T05:36:52.401Z,4.13
2019-06-01T05:39:25.129Z,5.07
2019-06-01T05:41:57.414Z,4.20
2019-06-01T05:44:30.069Z,4.70
2019-06-01T05:47:02.170Z,4.80
2019-06-01T05:49:36.578Z,4.70
2019-06-01T05:52:10.370Z,4.60
2019-06-01T05:54:43.469Z,4.00
2019-06-01T05:57:17.395Z,4.37
2019-06-01T05:59:51.032Z,5.20
2019-06-01T06:02:26.313Z,4.70
2019-06-01T06:05:01.931Z,5.30
2019-06-01T06:07:35.310Z,4.40
2019-06-01T06:10:08.999Z,4.93
2019-06-01T06:12:41.263Z,4.30
2019-06-01T06:15:15.629Z,4.97
2019-06-01T06:17:48.375Z,4.07
2019-06-01T06:20:23.987Z,4.13
2019-06-01T06:22:55.388Z,5.00
2019-06-01T06:25:31.776Z,4.20
2019-06-01T06:28:05.877Z,4.40
2019-06-01T06:30:37.416Z,3.80
2019-06-01T06:33:13.221Z,5.27
2019-06-01T06:35:47.408Z,5.00
2019-06-01T06:38:21.938Z,5.20
2019-06-01T06:40:54.737Z,4.53
2019-06-01T06:43:32.953Z,5.30
2019-06-01T06:46:04.431Z,4.80
2019-06-01T06:48:38.505Z,4.17
2019-06-01T06:51:12.491Z,4.40
2019-06-01T06:53:46.527Z,4.50
2019-06-01T06:56:22.029Z,4.13
2019-06-01T06:58:55.544Z,4.70
2019-06-01T07:01:27.451Z,4.87
2019-06-01T07:04:12.339Z,5.03
2019-06-01T07:06:35.652Z,4.43
2019-06-01T07:09:07.839Z,4.63
2019-06-01T07:11:39.713Z,4.50
2019-06-01T07:14:10.927Z,3.73
2019-06-01T07:16:44.498Z,4.57
2019-06-01T07:19:19.520Z,4.13
2019-06-01T07:21:52.621Z,4.33
2019-06-01T07:24:26.090Z,5.53
2019-06-01T07:27:01.297Z,5.30
2019-06-01T07:29:34.720Z,4.13
2019-06-01T07:32:06.766Z,5.30
2019-06-01T07:34:42.024Z,5.37
2019-06-01T07:37:15.462Z,4.87
2019-06-01T07:39:49.028Z,4.93
2019-06-01T07:42:23.499Z,5.90
2019-06-01T07:44:58.238Z,5.30
2019-06-01T07:47:33.845Z,5.73
2019-06-01T07:50:06.761Z,6.03
2019-06-01T07:52:39.761Z,6.17
2019-06-01T07:55:13.010Z,5.00
2019-06-01T07:57:45.751Z,5.57
2019-06-01T08:00:17.896Z,5.93
2019-06-01T08:02:52.292Z,5.97
2019-06-01T08:05:26.463Z,6.00
2019-06-01T08:07:58.701Z,7.30
2019-06-01T08:10:32.433Z,6.27
2019-06-01T08:13:07.497Z,6.40
2019-06-01T08:15:41.168Z,6.03
2019-06-01T08:18:12.410Z,6.00
2019-06-01T08:20:43.909Z,5.60
2019-06-01T08:23:15.913Z,5.83
2019-06-01T08:25:48.948Z,7.40
2019-06-01T08:28:24.392Z,6.80
2019-06-01T08:30:57.070Z,6.20
2019-06-01T08:33:33.149Z,6.90
2019-06-01T08:36:05.203Z,5.50
2019-06-01T08:38:38.904Z,6.20
2019-06-01T08:41:25.582Z,6.23
2019-06-01T08:43:59.036Z,6.60
2019-06-01T08:46:38.925Z,6.30
2019-06-01T08:49:13.135Z,7.00
2019-06-01T08:51:46.790Z,6.43
2019-06-01T08:54:20.533Z,6.00
2019-06-01T08:56:52.104Z,6.30
2019-06-01T08:59:26.297Z,6.20
2019-06-01T09:02:00.760Z,6.33
2019-06-01T09:04:34.951Z,7.17
2019-06-01T09:07:09.084Z,6.90
2019-06-01T09:09:43.074Z,6.83
2019-06-01T09:12:16.140Z,6.77
2019-06-01T09:14:48.001Z,7.10
2019-06-01T09:17:20.297Z,7.20
2019-06-01T09:19:52.162Z,10.13
2019-06-01T09:22:27.516Z,21.17
2019-06-01T09:25:00.601Z,25.10
2019-06-01T09:27:34.428Z,11.67
2019-06-01T09:30:07.221Z,10.83
2019-06-01T09:32:41.268Z,8.30
2019-06-01T09:35:14.273Z,6.50
2019-06-01T09:37:49.131Z,7.40
2019-06-01T09:40:24.578Z,6.00
2019-06-01T09:42:58.453Z,6.33
2019-06-01T09:45:32.888Z,5.50
2019-06-01T09:48:06.360Z,4.87
2019-06-01T09:50:38.453Z,5.30
2019-06-01T09:53:11.971Z,5.70
2019-06-01T09:55:45.414Z,5.87
2019-06-01T09:58:19.249Z,4.70
2019-06-01T10:00:52.742Z,5.47
2019-06-01T10:03:24.604Z,5.67
2019-06-01T10:06:01.890Z,5.07
2019-06-01T10:08:32.585Z,6.20
2019-06-01T10:11:08.422Z,5.73
2019-06-01T10:13:42.663Z,5.57
2019-06-01T10:16:14.458Z,5.97
2019-06-01T10:18:47.624Z,5.07
2019-06-01T10:21:23.406Z,5.67
2019-06-01T10:23:56.720Z,4.27
2019-06-01T10:26:34.071Z,5.50
2019-06-01T10:29:05.757Z,4.80
2019-06-01T10:31:41.098Z,5.23
2019-06-01T10:34:14.496Z,4.50
2019-06-01T10:36:47.802Z,6.37
2019-06-01T10:39:21.579Z,5.20
2019-06-01T10:41:57.213Z,6.60
2019-06-01T10:44:31.551Z,6.63
2019-06-01T10:47:05.694Z,5.40
2019-06-01T10:49:38.170Z,6.37
2019-06-01T10:52:10.080Z,4.77
2019-06-01T10:54:42.511Z,5.10
2019-06-01T10:57:16.646Z,5.27
2019-06-01T10:59:52.384Z,5.57
2019-06-01T11:02:26.404Z,5.90
2019-06-01T11:04:57.627Z,6.00
2019-06-01T11:07:28.905Z,7.00
2019-06-01T11:10:03.313Z,6.63
2019-06-01T11:12:39.148Z,5.93
2019-06-01T11:15:11.065Z,6.03
2019-06-01T11:17:44.648Z,5.93
2019-06-01T11:20:18.056Z,7.20
2019-06-01T11:22:49.836Z,7.30
2019-06-01T11:25:22.921Z,7.00
2019-06-01T11:27:56.904Z,7.00
2019-06-01T11:30:28.785Z,7.00
2019-06-01T11:33:01.861Z,6.33
2019-06-01T11:35:37.174Z,7.17
2019-06-01T11:38:11.571Z,8.00
2019-06-01T11:40:45.784Z,7.03
2019-06-01T11:43:17.917Z,7.00
2019-06-01T11:45:52.630Z,6.20
2019-06-01T11:48:24.843Z,7.70
2019-06-01T11:50:58.013Z,5.80
2019-06-01T11:53:32.125Z,7.77
2019-06-01T11:56:05.928Z,5.87
2019-06-01T11:58:39.243Z,7.03
2019-06-01T12:01:11.037Z,8.10
2019-06-01T12:03:46.207Z,8.33
2019-06-01T12:06:18.970Z,7.70
2019-06-01T12:09:11.855Z,7.90
2019-06-01T12:11:46.446Z,8.53
2019-06-01T12:14:20.813Z,7.33
2019-06-01T12:16:54.994Z,8.93
2019-06-01T12:19:27.194Z,8.43
2019-06-01T12:22:01.129Z,7.40
2019-06-01T12:24:34.085Z,8.80
2019-06-01T12:27:08.126Z,7.23
2019-06-01T12:29:41.484Z,8.10
2019-06-01T12:32:12.940Z,9.80
2019-06-01T12:34:46.258Z,8.80
2019-06-01T12:37:34.515Z,7.60
2019-06-01T12:39:54.259Z,6.57
2019-06-01T12:42:26.171Z,7.00
2019-06-01T12:45:00.425Z,6.80
2019-06-01T12:47:32.229Z,7.57
2019-06-01T12:50:07.099Z,7.53
2019-06-01T12:52:42.833Z,6.40
2019-06-01T12:55:15.781Z,6.40
2019-06-01T12:57:51.270Z,7.50
2019-06-01T13:00:24.648Z,5.87
2019-06-01T13:03:07.206Z,6.57
2019-06-01T13:05:32.202Z,7.20
2019-06-01T13:08:07.940Z,5.97
2019-06-01T13:10:39.176Z,6.40
2019-06-01T13:13:13.088Z,5.80
2019-06-01T13:15:49.349Z,7.03
2019-06-01T13:18:21.276Z,6.07
2019-06-01T13:20:54.323Z,5.97
2019-06-01T13:23:26.416Z,5.90
2019-06-01T13:25:59.451Z,7.07
2019-06-01T13:28:38.191Z,6.60
2019-06-01T13:31:12.650Z,6.97
2019-06-01T13:33:50.332Z,6.17
2019-06-01T13:36:23.555Z,5.33
2019-06-01T13:38:56.492Z,6.40
2019-06-01T13:41:32.085Z,6.63
2019-06-01T13:44:06.164Z,8.03
2019-06-01T13:46:39.803Z,6.90
2019-06-01T13:49:11.544Z,6.73
2019-06-01T13:51:44.097Z,7.30
2019-06-01T13:54:18.462Z,5.43
2019-06-01T13:56:52.926Z,6.23
2019-06-01T13:59:25.608Z,5.87
2019-06-01T14:01:58.819Z,6.13
2019-06-01T14:04:30.822Z,6.37
2019-06-01T14:07:03.760Z,5.60
2019-06-01T14:09:35.601Z,5.80
2019-06-01T14:12:09.068Z,5.43
2019-06-01T14:14:45.341Z,5.90
2019-06-01T14:17:18.544Z,5.07
2019-06-01T14:19:51.780Z,5.53
2019-06-01T14:22:25.466Z,5.43
2019-06-01T14:25:15.004Z,5.77
2019-06-01T14:27:48.200Z,5.37
2019-06-01T14:30:24.375Z,5.70
2019-06-01T14:32:58.009Z,5.83
2019-06-01T14:35:35.427Z,5.50
2019-06-01T14:38:12.017Z,5.60
2019-06-01T14:40:47.085Z,6.07
2019-06-01T14:43:19.790Z,6.23
2019-06-01T14:45:54.214Z,5.30
2019-06-01T14:48:27.757Z,6.03
2019-06-01T14:51:01.262Z,5.20
2019-06-01T14:53:36.087Z,6.00
2019-06-01T14:56:10.972Z,5.77
2019-06-01T14:58:43.653Z,6.37
2019-06-01T15:01:31.318Z,5.60
2019-06-01T15:03:54.686Z,5.33
2019-06-01T15:06:25.892Z,6.43
2019-06-01T15:09:15.243Z,6.10
2019-06-01T15:11:35.889Z,5.83
2019-06-01T15:14:09.891Z,5.57
2019-06-01T15:16:42.786Z,5.63
2019-06-01T15:19:16.793Z,5.20
2019-06-01T15:21:50.082Z,5.57
2019-06-01T15:24:24.159Z,4.90
2019-06-01T15:26:58.716Z,5.30
2019-06-01T15:29:32.017Z,5.67
2019-06-01T15:32:03.860Z,5.43
2019-06-01T15:34:36.983Z,5.40
2019-06-01T15:37:15.682Z,5.63
2019-06-01T15:39:47.031Z,4.67
2019-06-01T15:42:19.996Z,5.43
2019-06-01T15:44:53.117Z,6.10
2019-06-01T15:47:26.171Z,6.00
2019-06-01T15:50:00.206Z,5.20
2019-06-01T15:52:33.720Z,5.67
2019-06-01T15:55:05.931Z,5.23
2019-06-01T15:57:39.696Z,5.53
2019-06-01T16:00:15.064Z,5.40
2019-06-01T16:02:49.438Z,4.93
2019-06-01T16:05:21.204Z,5.83
2019-06-01T16:07:55.081Z,5.33
2019-06-01T16:10:28.877Z,5.43
2019-06-01T16:13:04.479Z,6.47
2019-06-01T16:15:37.267Z,5.50
2019-06-01T16:18:10.939Z,4.50
2019-06-01T16:20:44.027Z,5.23
2019-06-01T16:23:17.164Z,5.40
2019-06-01T16:26:03.790Z,4.60
2019-06-01T16:28:24.266Z,4.97
2019-06-01T16:30:58.595Z,5.00
2019-06-01T16:33:31.378Z,4.77
2019-06-01T16:36:05.598Z,5.00
2019-06-01T16:38:39.428Z,4.67
2019-06-01T16:41:32.872Z,5.40
2019-06-01T16:44:05.860Z,4.83
2019-06-01T16:46:38.442Z,4.43
2019-06-01T16:49:12.285Z,3.73
2019-06-01T16:51:56.715Z,5.30
2019-06-01T16:54:28.321Z,4.27
2019-06-01T16:57:01.346Z,5.67
2019-06-01T16:59:34.393Z,4.60
2019-06-01T17:02:07.986Z,4.93
2019-06-01T17:04:41.340Z,4.23
2019-06-01T17:07:15.539Z,4.70
2019-06-01T17:09:51.041Z,5.17
2019-06-01T17:12:22.308Z,5.10
2019-06-01T17:14:54.482Z,4.30
2019-06-01T17:17:31.196Z,5.30
2019-06-01T17:20:05.799Z,5.27
2019-06-01T17:22:38.510Z,5.30
2019-06-01T17:25:12.135Z,4.20
2019-06-01T17:27:45.521Z,5.07
2019-06-01T17:30:21.387Z,5.10
2019-06-01T17:32:54.339Z,5.17
2019-06-01T17:35:27.595Z,4.77
2019-06-01T17:38:00.781Z,4.70
2019-06-01T17:40:38.470Z,5.33
2019-06-01T17:43:13.152Z,5.30
2019-06-01T17:45:46.595Z,5.03
2019-06-01T17:48:25.568Z,5.07
2019-06-01T17:50:53.563Z,5.70
2019-06-01T17:53:29.326Z,5.27
2019-06-01T17:56:01.937Z,5.57
2019-06-01T17:58:35.769Z,5.30
2019-06-01T18:01:09.956Z,4.73
2019-06-01T18:03:45.150Z,5.03
2019-06-01T18:06:18.589Z,4.73
2019-06-01T18:08:53.523Z,4.53
2019-06-01T18:11:25.503Z,5.30
2019-06-01T18:13:59.738Z,5.07
2019-06-01T18:16:32.238Z,5.60
2019-06-01T18:19:04.641Z,4.80
2019-06-01T18:21:40.410Z,5.57
2019-06-01T18:24:14.101Z,5.53
2019-06-01T18:26:47.940Z,5.47
2019-06-01T18:29:21.847Z,5.77
2019-06-01T18:31:54.978Z,5.80
2019-06-01T18:34:27.030Z,5.00
2019-06-01T18:37:01.234Z,5.40
2019-06-01T18:39:32.818Z,4.73
2019-06-01T18:42:06.289Z,5.70
2019-06-01T18:44:40.245Z,5.30
2019-06-01T18:47:13.929Z,5.63
2019-06-01T18:49:46.160Z,6.30
2019-06-01T18:52:19.845Z,6.10
2019-06-01T18:54:51.817Z,5.20
2019-06-01T18:57:23.953Z,5.23
2019-06-01T18:59:57.457Z,4.70
2019-06-01T19:02:29.958Z,6.33
2019-06-01T19:05:04.836Z,5.63
2019-06-01T19:07:40.725Z,5.80
2019-06-01T19:10:15.798Z,5.03
2019-06-01T19:12:49.090Z,5.83
2019-06-01T19:15:28.490Z,5.33
2019-06-01T19:17:56.973Z,5.53
2019-06-01T19:20:33.290Z,6.00
2019-06-01T19:23:06.616Z,5.40
2019-06-01T19:25:38.030Z,6.40
2019-06-01T19:28:10.883Z,5.27
2019-06-01T19:30:46.859Z,6.30
2019-06-01T19:33:19.669Z,6.33
2019-06-01T19:35:53.995Z,6.60
2019-06-01T19:38:30.489Z,6.67
2019-06-01T19:41:04.820Z,5.87
2019-06-01T19:43:38.570Z,5.40
2019-06-01T19:46:11.954Z,5.60
2019-06-01T19:48:44.387Z,5.53
2019-06-01T19:51:18.794Z,5.90
2019-06-01T19:53:52.803Z,6.37
2019-06-01T19:56:27.487Z,5.30
2019-06-01T19:59:01.464Z,5.43
2019-06-01T20:01:35.832Z,4.80
2019-06-01T20:04:10.430Z,5.27
2019-06-01T20:06:44.371Z,4.73
2019-06-01T20:09:19.302Z,5.17
2019-06-01T20:12:01.313Z,5.30
2019-06-01T20:14:26.772Z,5.17
2019-06-01T20:16:59.451Z,5.20
2019-06-01T20:19:35.019Z,5.43
2019-06-01T20:22:07.503Z,5.03
2019-06-01T20:24:41.357Z,5.40
2019-06-01T20:27:13.469Z,5.30
2019-06-01T20:29:47.414Z,5.33
2019-06-01T20:32:20.511Z,5.20
2019-06-01T20:34:54.685Z,5.33
2019-06-01T20:37:29.995Z,5.30
2019-06-01T20:40:02.531Z,5.83
2019-06-01T20:42:37.200Z,5.30
2019-06-01T20:45:10.871Z,5.57
2019-06-01T20:48:06.733Z,5.20
2019-06-01T20:50:39.365Z,4.80
2019-06-01T20:53:13.217Z,5.83
2019-06-01T20:55:45.524Z,6.50
2019-06-01T20:58:19.542Z,6.43
2019-06-01T21:00:54.168Z,5.60
2019-06-01T21:03:25.386Z,5.70
2019-06-01T21:05:57.590Z,5.40
2019-06-01T21:08:33.053Z,5.53
2019-06-01T21:11:07.490Z,5.27
2019-06-01T21:13:41.634Z,6.30
2019-06-01T21:16:18.071Z,5.90
2019-06-01T21:18:52.805Z,5.73
2019-06-01T21:21:24.957Z,6.00
2019-06-01T21:23:58.319Z,5.87
2019-06-01T21:26:32.681Z,5.70
2019-06-01T21:29:04.556Z,5.40
2019-06-01T21:31:37.639Z,5.50
2019-06-01T21:34:13.509Z,5.90
2019-06-01T21:36:45.893Z,5.87
2019-06-01T21:39:46.707Z,6.67
2019-06-01T21:42:19.640Z,5.97
2019-06-01T21:44:55.444Z,7.73
2019-06-01T21:47:28.399Z,6.40
2019-06-01T21:50:01.755Z,6.73
2019-06-01T21:52:35.091Z,6.40
2019-06-01T21:55:08.684Z,6.10
2019-06-01T21:57:40.836Z,6.73
2019-06-01T22:00:20.521Z,6.40
2019-06-01T22:02:52.698Z,6.67
2019-06-01T22:05:27.222Z,6.37
2019-06-01T22:07:59.860Z,7.47
2019-06-01T22:10:33.559Z,5.20
2019-06-01T22:13:18.339Z,6.10
2019-06-01T22:15:40.772Z,6.37
2019-06-01T22:18:14.590Z,6.23
2019-06-01T22:20:45.804Z,6.20
2019-06-01T22:23:21.906Z,6.17
2019-06-01T22:25:54.917Z,6.63
2019-06-01T22:28:26.981Z,7.60
2019-06-01T22:31:01.108Z,7.00
2019-06-01T22:33:33.975Z,6.80
2019-06-01T22:36:06.750Z,6.27
2019-06-01T22:38:41.697Z,5.97
2019-06-01T22:41:12.920Z,7.60
2019-06-01T22:43:47.113Z,6.20
2019-06-01T22:46:22.600Z,6.23
2019-06-01T22:48:57.156Z,5.83
2019-06-01T22:53:55.380Z,5.90
2019-06-01T22:56:27.940Z,5.27
2019-06-01T22:59:01.138Z,5.40
2019-06-01T23:01:33.519Z,6.53
2019-06-01T23:04:05.052Z,5.57
2019-06-01T23:06:38.156Z,5.90
2019-06-01T23:09:12.220Z,5.47
2019-06-01T23:11:46.672Z,5.90
2019-06-01T23:14:23.363Z,5.83
2019-06-01T23:16:57.502Z,5.70
2019-06-01T23:19:30.522Z,6.30
2019-06-01T23:22:04.242Z,4.50
2019-06-01T23:24:35.555Z,5.07
2019-06-01T23:27:07.092Z,5.37
2019-06-01T23:29:38.281Z,5.60
2019-06-01T23:32:15.197Z,5.37
2019-06-01T23:34:50.428Z,5.13
2019-06-01T23:37:26.681Z,5.87
2019-06-01T23:39:59.233Z,5.07
2019-06-01T23:42:33.415Z,5.00
2019-06-01T23:45:06.647Z,5.30
2019-06-01T23:47:38.341Z,5.77
2019-06-01T23:50:11.554Z,5.83
2019-06-01T23:52:45.383Z,5.27
2019-06-01T23:55:17.363Z,5.43
2019-06-01T23:57:51.425Z,6.40
